Cocoa Beach, FL (32931)

4:08 AM EDT on September 04, 2015 (GMT -0400)
The Weather Reporter | | Change Station
CLOSE
Current Station
Personal Weather Station
Location: Merritt Island, FL
Elevation: 13 ft
Nearby Weather Stations

Elev 13 ft 28.36 °N, 80.66 °W | Updated 1 second ago

Clear
Clear
81.0 °F
Feels Like 87 °F
N
2.0
Wind Variable Wind from NW
Gusts 3.0 mph

Today
High -- | Low -- °F
--% Chance of Precip.
Yesterday
High -- | Low -- °F
Precip. -- in
7:02 AM 7:40 PM
Waning Gibbous, 62% visible
Pressure 29.91 in
Visibility 10.0 miles
Clouds Clear
Heat Index 87 °F
Dew Point 76 °F
Humidity 84%
Rainfall 0.00 in
Snow Depth Not available.
UV 0 out of 12
Pollen 7.00 out of 12
Air Quality Not available.
Flu Activity Not available.
METAR KCOF 040758Z AUTO 31006KT 10SM CLR 27/24 A2990 RMK AO2 SLP129 T02740243
Pressure 29.91 in
Visibility 10.0 miles
Clouds Clear
Heat Index 87 °F
Dew Point 76 °F
Humidity 84%
Rainfall 0.00 in
Snow Depth Not available.
UV 0 out of 12
Pollen 7.00 out of 12
Air Quality Not available.
Flu Activity Not available.
METAR KCOF 040758Z AUTO 31006KT 10SM CLR 27/24 A2990 RMK AO2 SLP129 T02740243

10-Day Weather Forecast

×

Almanac

Astronomy

Sep. 04, 2015 Rise Set
Actual Time
Civil Twilight
Nautical Twilight
Astronomical Twilight
Moon
Length of Visible Light
Length of Day
Tomorrow will be .
, % of the Moon is Illuminated

Today's Extremes

State Highs State Lows

Community

WunderPhotos

Upload Photos

1,852,141 photos uploaded!

WunderBlogs® & News

Nearby

Air Quality

  Air Quality AQ Index Pollutant
Not available.

Snow Depth

Station Depth Elevation

Earthquake Activity

City Distance Mag. Time & Date
Minimum magnitude displayed is 2.5.

Coastal Water Temperatures

Place Temperature

Stations

Nearby Weather Stations

Station Location Temp. Windchill Dew Point Humidity Wind Precip. Elev Updated Type